createdAt,value
2022-08-09T00:00:44.502Z,99160.66
2022-08-09T00:04:00.794Z,99167.63
2022-08-09T00:06:16.058Z,99161.25
2022-08-09T00:08:49.204Z,99161.88
2022-08-09T00:12:03.950Z,99161.25
2022-08-09T00:14:12.553Z,99162.06
2022-08-09T00:16:55.785Z,99157.22
2022-08-09T00:19:22.469Z,99168.19
2022-08-09T00:21:57.043Z,99164.63
2022-08-09T00:24:24.474Z,99168.53
2022-08-09T00:26:57.792Z,99172.53
2022-08-09T00:29:39.117Z,99173.94
2022-08-09T00:32:26.547Z,99170.97
2022-08-09T00:35:09.784Z,99172.38
2022-08-09T00:37:43.805Z,99171.19
2022-08-09T00:40:19.685Z,99168.50
2022-08-09T00:44:13.488Z,99168.50
2022-08-09T00:45:50.740Z,99165.97
2022-08-09T00:48:26.776Z,99165.34
2022-08-09T00:50:59.801Z,99158.28
2022-08-09T00:53:26.400Z,99163.00
2022-08-09T00:56:05.185Z,99162.38
2022-08-09T00:58:36.300Z,99164.41
2022-08-09T01:01:20.820Z,99164.59
2022-08-09T01:03:54.956Z,99169.69
2022-08-09T01:06:54.504Z,99167.19
2022-08-09T01:09:36.627Z,99165.53
2022-08-09T01:12:09.777Z,99167.19
2022-08-09T01:14:52.651Z,99161.53
2022-08-09T01:17:30.482Z,99169.97
2022-08-09T01:20:03.198Z,99165.97
2022-08-09T01:22:45.758Z,99168.31
2022-08-09T01:25:21.981Z,99166.25
2022-08-09T01:27:58.015Z,99162.28
2022-08-09T01:30:28.682Z,99167.00
2022-08-09T01:33:20.773Z,99178.69
2022-08-09T01:35:53.379Z,99172.53
2022-08-09T01:38:29.784Z,99176.97
2022-08-09T01:41:08.073Z,99172.13
2022-08-09T01:43:52.011Z,99171.00
2022-08-09T01:46:26.461Z,99172.22
2022-08-09T01:49:09.545Z,99178.13
2022-08-09T01:51:39.140Z,99172.56
2022-08-09T01:54:17.192Z,99174.69
2022-08-09T01:56:47.176Z,99174.44
2022-08-09T01:59:26.789Z,99172.09
2022-08-09T02:02:01.201Z,99174.47
2022-08-09T02:04:35.805Z,99177.16
2022-08-09T02:07:17.814Z,99174.31
2022-08-09T02:10:05.763Z,99180.50
2022-08-09T02:12:33.403Z,99177.47
2022-08-09T02:15:07.811Z,99178.38
2022-08-09T02:18:00.594Z,99179.75
2022-08-09T02:20:33.872Z,99185.47
2022-08-09T02:23:03.737Z,99184.66
2022-08-09T02:25:42.174Z,99187.34
2022-08-09T02:28:24.369Z,99187.97
2022-08-09T02:31:01.766Z,99181.22
2022-08-09T02:33:37.915Z,99189.66
2022-08-09T02:36:36.795Z,99185.47
2022-08-09T02:39:20.037Z,99189.53
2022-08-09T02:42:07.889Z,99190.09
2022-08-09T02:44:50.777Z,99187.22
2022-08-09T02:47:24.868Z,99188.97
2022-08-09T02:50:02.517Z,99187.53
2022-08-09T02:53:01.770Z,99192.56
2022-08-09T02:55:39.447Z,99187.28
2022-08-09T02:58:35.312Z,99190.97
2022-08-09T03:01:06.357Z,99188.97
2022-08-09T03:04:17.258Z,99187.81
2022-08-09T03:06:36.761Z,99190.50
2022-08-09T03:09:10.767Z,99190.19
2022-08-09T03:12:10.443Z,99188.50
2022-08-09T03:14:32.784Z,99184.00
2022-08-09T03:17:01.737Z,99185.47
2022-08-09T03:19:52.591Z,99182.69
2022-08-09T03:22:31.919Z,99183.38
2022-08-09T03:25:26.106Z,99183.56
2022-08-09T03:27:59.776Z,99185.94
2022-08-09T03:30:32.996Z,99189.28
2022-08-09T03:33:17.534Z,99187.44
2022-08-09T03:36:12.848Z,99188.63
2022-08-09T03:38:47.805Z,99187.78
2022-08-09T03:41:42.999Z,99188.16
2022-08-09T03:44:22.750Z,99184.81
2022-08-09T03:46:58.493Z,99188.16
2022-08-09T03:49:35.817Z,99191.50
2022-08-09T03:52:03.768Z,99185.09
2022-08-09T03:54:40.177Z,99187.09
2022-08-09T03:57:20.913Z,99192.13
2022-08-09T04:00:00.730Z,99191.97
2022-08-09T04:02:30.809Z,99200.19
2022-08-09T04:05:26.507Z,99195.47
2022-08-09T04:07:57.555Z,99203.53
2022-08-09T04:10:31.742Z,99199.88
2022-08-09T04:13:05.777Z,99202.44
2022-08-09T04:16:18.641Z,99198.56
2022-08-09T04:18:25.359Z,99200.91
2022-08-09T04:20:59.114Z,99204.56
2022-08-09T04:23:26.360Z,99194.50
2022-08-09T04:26:00.819Z,99189.16
2022-08-09T04:28:33.526Z,99195.53
2022-08-09T04:31:10.286Z,99198.00
2022-08-09T04:33:52.056Z,99199.53
2022-08-09T04:36:20.126Z,99200.84
2022-08-09T04:38:52.757Z,99202.69
2022-08-09T04:41:33.304Z,99203.53
2022-08-09T04:44:18.744Z,99206.50
2022-08-09T04:46:58.384Z,99207.50
2022-08-09T04:49:52.836Z,99200.50
2022-08-09T04:52:27.138Z,99198.31
2022-08-09T04:55:02.394Z,99204.66
2022-08-09T04:57:58.502Z,99211.53
2022-08-09T05:00:24.757Z,99207.16
2022-08-09T05:03:30.665Z,99208.47
2022-08-09T05:06:04.480Z,99219.56
2022-08-09T05:08:34.831Z,99219.56
2022-08-09T05:11:08.815Z,99216.84
2022-08-09T05:13:38.723Z,99228.03
2022-08-09T05:16:14.933Z,99223.25
2022-08-09T05:18:57.766Z,99230.63
2022-08-09T05:21:36.412Z,99230.81
2022-08-09T05:24:13.475Z,99227.47
2022-08-09T05:26:47.904Z,99232.97
2022-08-09T05:29:22.027Z,99235.66
2022-08-09T05:31:58.355Z,99236.31
2022-08-09T05:34:31.485Z,99243.50
2022-08-09T05:37:06.771Z,99245.34
2022-08-09T05:39:36.141Z,99248.88
2022-08-09T05:42:28.679Z,99249.53
2022-08-09T05:45:01.960Z,99239.13
2022-08-09T05:47:34.734Z,99247.00
2022-08-09T05:50:30.835Z,99237.09
2022-08-09T05:53:05.735Z,99247.97
2022-08-09T05:55:38.359Z,99252.13
2022-08-09T05:58:11.812Z,99248.25
2022-08-09T06:00:45.376Z,99250.59
2022-08-09T06:03:20.585Z,99248.22
2022-08-09T06:05:50.278Z,99245.13
2022-08-09T06:08:31.707Z,99247.13
2022-08-09T06:10:59.112Z,99254.50
2022-08-09T06:13:34.200Z,99254.50
2022-08-09T06:16:07.706Z,99254.41
2022-08-09T06:18:41.901Z,99254.75
2022-08-09T06:21:09.215Z,99255.00
2022-08-09T06:23:58.299Z,99262.38
2022-08-09T06:26:34.716Z,99257.00
2022-08-09T06:29:07.744Z,99260.84
2022-08-09T06:32:36.172Z,99261.16
2022-08-09T06:34:34.381Z,99260.81
2022-08-09T06:37:10.162Z,99261.91
2022-08-09T06:39:49.338Z,99258.13
2022-08-09T06:42:45.141Z,99258.59
2022-08-09T06:46:05.040Z,99263.41
2022-08-09T06:48:16.584Z,99261.81
2022-08-09T06:50:59.909Z,99256.75
2022-08-09T06:53:26.681Z,99269.09
2022-08-09T06:55:59.757Z,99266.19
2022-08-09T07:00:52.289Z,99269.63
2022-08-09T07:01:23.991Z,99269.09
2022-08-09T07:03:56.707Z,99270.75
2022-08-09T07:06:33.722Z,99271.97
2022-08-09T07:09:01.389Z,99272.63
2022-08-09T07:11:45.475Z,99275.31
2022-08-09T07:14:26.737Z,99278.28
2022-08-09T07:16:57.962Z,99275.41
2022-08-09T07:19:31.882Z,99280.25
2022-08-09T07:21:59.801Z,99282.66
2022-08-09T07:24:40.113Z,99277.38
2022-08-09T07:27:27.379Z,99278.94
2022-08-09T07:30:08.695Z,99271.84
2022-08-09T07:32:36.412Z,99273.00
2022-08-09T07:35:14.696Z,99281.38
2022-08-09T07:37:51.908Z,99278.25
2022-08-09T07:40:26.831Z,99276.66
2022-08-09T07:43:01.709Z,99280.28
2022-08-09T07:45:37.974Z,99276.38
2022-08-09T07:48:25.868Z,99277.00
2022-08-09T07:51:09.507Z,99276.97
2022-08-09T07:54:04.916Z,99273.41
2022-08-09T07:56:34.429Z,99279.88
2022-08-09T07:59:14.012Z,99274.59
2022-08-09T08:01:42.759Z,99282.72
2022-08-09T08:04:31.618Z,99280.81
2022-08-09T08:07:09.573Z,99274.75
2022-08-09T08:10:04.589Z,99275.97
2022-08-09T08:12:37.100Z,99280.63
2022-08-09T08:15:17.734Z,99280.19
2022-08-09T08:17:53.612Z,99276.44
2022-08-09T08:20:32.433Z,99274.06
2022-08-09T08:23:17.061Z,99271.16
2022-08-09T08:25:50.345Z,99266.84
2022-08-09T08:28:32.757Z,99269.41
2022-08-09T08:31:04.669Z,99267.19
2022-08-09T08:33:52.468Z,99254.41
2022-08-09T08:36:29.604Z,99258.59
2022-08-09T08:39:22.095Z,99255.13
2022-08-09T08:41:58.725Z,99252.88
2022-08-09T08:44:41.864Z,99255.41
2022-08-09T08:47:12.925Z,99251.50
2022-08-09T08:49:49.353Z,99248.00
2022-08-09T08:52:52.674Z,99247.00
2022-08-09T08:55:09.752Z,99235.59
2022-08-09T08:57:37.617Z,99242.69
2022-08-09T09:00:20.318Z,99237.13
2022-08-09T09:02:49.940Z,99241.34
2022-08-09T09:05:57.852Z,99240.50
2022-08-09T09:08:30.157Z,99233.66
2022-08-09T09:11:05.704Z,99233.25
2022-08-09T09:13:56.469Z,99234.28
2022-08-09T09:16:37.690Z,99236.16
2022-08-09T09:22:02.693Z,99233.47
2022-08-09T09:24:39.578Z,99234.28
2022-08-09T09:27:08.544Z,99239.47
2022-08-09T09:30:13.990Z,99236.34
2022-08-09T09:32:37.094Z,99237.81
2022-08-09T09:35:15.787Z,99227.59
2022-08-09T09:37:53.013Z,99226.34
2022-08-09T09:40:19.550Z,99229.84
2022-08-09T09:43:09.723Z,99229.63
2022-08-09T09:46:38.842Z,99224.34
2022-08-09T09:49:16.861Z,99221.13
2022-08-09T09:51:43.474Z,99222.38
2022-08-09T09:54:21.107Z,99219.63
2022-08-09T09:58:03.779Z,99219.13
2022-08-09T09:59:52.056Z,99213.69
2022-08-09T10:02:25.954Z,99223.25
2022-08-09T10:05:09.930Z,99219.72
2022-08-09T10:08:10.785Z,99214.03
2022-08-09T10:10:31.317Z,99212.47
2022-08-09T10:13:04.696Z,99212.13
2022-08-09T10:16:08.743Z,99208.31
2022-08-09T10:18:25.305Z,99205.41
2022-08-09T10:20:59.687Z,99207.25
2022-08-09T10:23:28.099Z,99213.03
2022-08-09T10:26:06.266Z,99210.81
2022-08-09T10:28:36.702Z,99204.19
2022-08-09T10:34:09.173Z,99201.03
2022-08-09T10:36:45.263Z,99199.63
2022-08-09T10:39:15.457Z,99182.06
2022-08-09T10:41:49.705Z,99186.31
2022-08-09T10:44:30.415Z,99188.47
2022-08-09T10:48:16.781Z,99188.94
2022-08-09T10:50:03.259Z,99192.47
2022-08-09T10:52:55.739Z,99190.50
2022-08-09T10:55:28.091Z,99190.28
2022-08-09T10:58:01.751Z,99195.56
2022-08-09T11:00:29.259Z,99188.41
2022-08-09T11:03:19.034Z,99188.56
2022-08-09T11:06:08.285Z,99188.78
2022-08-09T11:08:51.287Z,99180.59
2022-08-09T11:11:20.291Z,99174.84
2022-08-09T11:13:54.745Z,99181.19
2022-08-09T11:16:40.773Z,99179.06
2022-08-09T11:19:14.669Z,99176.81
2022-08-09T11:21:57.193Z,99178.91
2022-08-09T11:24:57.771Z,99175.06
2022-08-09T11:28:02.297Z,99164.44
2022-08-09T11:30:34.315Z,99178.59
2022-08-09T11:33:24.667Z,99184.16
2022-08-09T11:35:58.014Z,99173.31
2022-08-09T11:38:34.007Z,99175.44
2022-08-09T11:41:05.443Z,99169.72
2022-08-09T11:43:47.658Z,99165.94
2022-08-09T11:46:33.644Z,99161.44
2022-08-09T11:49:07.856Z,99162.72
2022-08-09T11:53:02.380Z,99167.53
2022-08-09T11:55:15.697Z,99155.56
2022-08-09T11:58:02.258Z,99158.81
2022-08-09T12:00:39.669Z,99161.25
2022-08-09T12:03:50.371Z,99158.34
2022-08-09T12:06:15.683Z,99150.78
2022-08-09T12:08:59.693Z,99145.59
2022-08-09T12:11:44.487Z,99148.66
2022-08-09T12:14:58.880Z,99145.59
2022-08-09T12:17:34.391Z,99145.72
2022-08-09T12:20:27.808Z,99140.41
2022-08-09T12:23:02.694Z,99134.84
2022-08-09T12:25:32.036Z,99139.09
2022-08-09T12:29:15.214Z,99132.47
2022-08-09T12:31:30.826Z,99133.53
2022-08-09T12:34:21.093Z,99133.91
2022-08-09T12:36:58.985Z,99141.34
2022-08-09T12:39:43.578Z,99134.88
2022-08-09T12:42:17.733Z,99139.13
2022-08-09T12:44:54.458Z,99133.09
2022-08-09T12:47:28.674Z,99127.53
2022-08-09T12:50:25.738Z,99129.50
2022-08-09T12:53:08.953Z,99133.94
2022-08-09T12:56:12.382Z,99130.28
2022-08-09T12:58:32.600Z,99129.25
2022-08-09T13:01:07.674Z,99123.56
2022-08-09T13:03:57.255Z,99121.34
2022-08-09T13:06:35.891Z,99116.97
2022-08-09T13:09:07.513Z,99123.38
2022-08-09T13:11:45.834Z,99126.47
2022-08-09T13:14:42.089Z,99120.56
2022-08-09T13:17:13.657Z,99120.22
2022-08-09T13:20:06.726Z,99124.22
2022-08-09T13:23:06.043Z,99115.56
2022-08-09T13:25:31.854Z,99115.72
2022-08-09T13:28:08.325Z,99115.22
2022-08-09T13:31:10.865Z,99113.69
2022-08-09T13:33:35.990Z,99109.53
2022-08-09T13:36:39.604Z,99111.91
2022-08-09T13:41:19.220Z,99099.94
2022-08-09T13:42:12.472Z,99100.44
2022-08-09T13:44:48.713Z,99097.75
2022-08-09T13:47:49.441Z,99102.81
2022-08-09T13:50:30.123Z,99099.75
2022-08-09T13:53:04.669Z,99100.38
2022-08-09T13:55:33.990Z,99098.63
2022-08-09T13:58:11.660Z,99098.31
2022-08-09T14:00:49.818Z,99099.91
2022-08-09T14:04:01.105Z,99101.00
2022-08-09T14:06:11.876Z,99100.81
2022-08-09T14:08:52.655Z,99102.63
2022-08-09T14:11:19.342Z,99103.41
2022-08-09T14:14:22.795Z,99093.78
2022-08-09T14:16:40.432Z,99096.72
2022-08-09T14:19:13.703Z,99098.19
2022-08-09T14:21:40.357Z,99092.75
2022-08-09T14:24:18.564Z,99094.22
2022-08-09T14:26:51.261Z,99096.09
2022-08-09T14:30:34.828Z,99101.88
2022-08-09T14:32:19.887Z,99102.09
2022-08-09T14:35:03.653Z,99101.56
2022-08-09T14:38:01.428Z,99103.16
2022-08-09T14:40:39.021Z,99102.09
2022-08-09T14:43:18.777Z,99097.28
2022-08-09T14:46:55.972Z,99099.56
2022-08-09T14:48:45.370Z,99097.22
2022-08-09T14:51:18.689Z,99101.97
2022-08-09T14:53:52.701Z,99104.22
2022-08-09T14:56:19.365Z,99095.13
2022-08-09T14:58:56.212Z,99102.13
2022-08-09T15:01:24.736Z,99100.56
2022-08-09T15:03:58.662Z,99108.13
2022-08-09T15:06:25.646Z,99099.63
2022-08-09T15:09:03.644Z,99102.44
2022-08-09T15:11:37.656Z,99102.22
2022-08-09T15:14:13.411Z,99097.38
2022-08-09T15:16:46.698Z,99098.69
2022-08-09T15:19:26.070Z,99102.09
2022-08-09T15:21:58.780Z,99098.44
2022-08-09T15:24:35.665Z,99097.25
2022-08-09T15:27:02.996Z,99092.53
2022-08-09T15:30:55.747Z,99087.91
2022-08-09T15:32:32.674Z,99090.41
2022-08-09T15:35:40.082Z,99086.50
2022-08-09T15:37:57.121Z,99080.34
2022-08-09T15:40:44.662Z,99083.28
2022-08-09T15:43:18.688Z,99082.94
2022-08-09T15:46:28.703Z,99079.16
2022-08-09T15:49:20.495Z,99078.72
2022-08-09T15:52:05.032Z,99072.91
2022-08-09T15:54:42.400Z,99075.16
2022-08-09T15:57:13.341Z,99068.28
2022-08-09T15:59:51.441Z,99066.06
2022-08-09T16:02:19.077Z,99065.91
2022-08-09T16:05:04.150Z,99061.53
2022-08-09T16:07:39.256Z,99057.50
2022-08-09T16:10:55.017Z,99061.09
2022-08-09T16:13:20.948Z,99050.91
2022-08-09T16:16:10.834Z,99043.22
2022-08-09T16:18:50.666Z,99056.31
2022-08-09T16:21:25.438Z,99053.97
2022-08-09T16:24:02.705Z,99051.19
2022-08-09T16:26:36.680Z,99051.59
2022-08-09T16:29:10.337Z,99054.44
2022-08-09T16:32:19.293Z,99057.06
2022-08-09T16:34:55.544Z,99061.78
2022-08-09T16:37:54.683Z,99060.72
2022-08-09T16:40:39.847Z,99057.34
2022-08-09T16:43:14.408Z,99055.53
2022-08-09T16:45:48.155Z,99050.00
2022-08-09T16:48:43.400Z,99053.19
2022-08-09T16:51:14.661Z,99056.38
2022-08-09T16:54:16.437Z,99052.25
2022-08-09T16:56:49.510Z,99049.25
2022-08-09T16:59:23.988Z,99046.06
2022-08-09T17:01:52.999Z,99046.28
2022-08-09T17:04:28.301Z,99044.25
2022-08-09T17:08:40.960Z,99047.28
2022-08-09T17:09:48.675Z,99047.28
2022-08-09T17:12:17.556Z,99044.31
2022-08-09T17:14:57.653Z,99040.53
2022-08-09T17:17:26.769Z,99043.25
2022-08-09T17:20:29.093Z,99055.19
2022-08-09T17:22:50.111Z,99047.28
2022-08-09T17:25:25.651Z,99054.53
2022-08-09T17:27:57.939Z,99057.38
2022-08-09T17:30:34.640Z,99061.41
2022-08-09T17:33:22.636Z,99060.47
2022-08-09T17:35:56.657Z,99061.19
2022-08-09T17:38:34.076Z,99064.78
2022-08-09T17:41:06.203Z,99062.38
2022-08-09T17:43:41.044Z,99058.72
2022-08-09T17:46:21.704Z,99066.66
2022-08-09T17:49:01.200Z,99077.03
2022-08-09T17:51:34.652Z,99076.59
2022-08-09T17:54:08.658Z,99072.31
2022-08-09T17:56:36.138Z,99075.88
2022-08-09T17:59:16.734Z,99078.44
2022-08-09T18:02:11.163Z,99079.72
2022-08-09T18:04:37.465Z,99082.03
2022-08-09T18:07:23.379Z,99076.69
2022-08-09T18:10:04.448Z,99082.09
2022-08-09T18:13:40.101Z,99084.78
2022-08-09T18:15:50.266Z,99087.44
2022-08-09T18:18:25.895Z,99088.78
2022-08-09T18:21:19.194Z,99095.56
2022-08-09T18:24:09.826Z,99096.56
2022-08-09T18:26:46.870Z,99094.59
2022-08-09T18:30:38.341Z,99089.91
2022-08-09T18:32:18.864Z,99100.03
2022-08-09T18:34:45.936Z,99097.81
2022-08-09T18:37:49.128Z,99105.81
2022-08-09T18:40:08.541Z,99109.59
2022-08-09T18:42:43.051Z,99118.84
2022-08-09T18:45:21.487Z,99122.47
2022-08-09T18:48:17.895Z,99123.53
2022-08-09T18:50:44.721Z,99132.56
2022-08-09T18:53:17.656Z,99128.25
2022-08-09T18:55:56.407Z,99137.25
2022-08-09T18:58:33.772Z,99145.44
2022-08-09T19:01:01.821Z,99148.19
2022-08-09T19:03:29.164Z,99151.16
2022-08-09T19:06:22.686Z,99149.31
2022-08-09T19:09:03.218Z,99157.44
2022-08-09T19:11:37.940Z,99163.53
2022-08-09T19:14:12.733Z,99168.13
2022-08-09T19:16:50.350Z,99170.66
2022-08-09T19:19:25.671Z,99178.56
2022-08-09T19:22:06.686Z,99178.41
2022-08-09T19:25:09.946Z,99179.47
2022-08-09T19:27:34.639Z,99173.25
2022-08-09T19:30:24.823Z,99170.34
2022-08-09T19:32:55.394Z,99174.75
2022-08-09T19:35:57.668Z,99165.59
2022-08-09T19:38:18.416Z,99176.47
2022-08-09T19:40:51.727Z,99170.84
2022-08-09T19:44:01.010Z,99176.03
2022-08-09T19:46:35.505Z,99173.13
2022-08-09T19:50:08.671Z,99176.69
2022-08-09T19:52:07.667Z,99178.38
2022-08-09T19:54:40.707Z,99182.53
2022-08-09T19:57:14.666Z,99181.25
2022-08-09T19:59:59.161Z,99185.84
2022-08-09T20:04:08.356Z,99192.72
2022-08-09T20:05:23.624Z,99187.72
2022-08-09T20:08:05.138Z,99193.56
2022-08-09T20:10:34.828Z,99191.25
2022-08-09T20:13:11.654Z,99195.63
2022-08-09T20:16:33.208Z,99190.84
2022-08-09T20:18:37.667Z,99190.25
2022-08-09T20:21:04.425Z,99190.44
2022-08-09T20:23:41.718Z,99194.41
2022-08-09T20:26:10.144Z,99191.28
2022-08-09T20:28:49.895Z,99198.75
2022-08-09T20:31:17.244Z,99196.47
2022-08-09T20:33:52.360Z,99203.75
2022-08-09T20:36:25.036Z,99200.41
2022-08-09T20:39:27.975Z,99200.63
2022-08-09T20:41:53.624Z,99201.84
2022-08-09T20:44:34.458Z,99196.88
2022-08-09T20:47:45.365Z,99199.78
2022-08-09T20:50:04.265Z,99197.25
2022-08-09T20:52:37.828Z,99196.00
2022-08-09T20:55:08.772Z,99190.78
2022-08-09T20:58:05.436Z,99189.34
2022-08-09T21:00:35.692Z,99198.69
2022-08-09T21:03:08.908Z,99192.44
2022-08-09T21:05:56.105Z,99195.38
2022-08-09T21:08:36.725Z,99197.41
2022-08-09T21:13:59.626Z,99188.06
2022-08-09T21:16:33.635Z,99185.38
2022-08-09T21:20:19.263Z,99194.94
2022-08-09T21:21:57.261Z,99194.94
2022-08-09T21:24:33.795Z,99195.34
2022-08-09T21:27:10.160Z,99189.94
2022-08-09T21:29:54.625Z,99183.91
2022-08-09T21:32:33.396Z,99185.81
2022-08-09T21:35:07.695Z,99189.72
2022-08-09T21:37:58.750Z,99189.09
2022-08-09T21:40:30.799Z,99183.69
2022-08-09T21:43:09.608Z,99185.38
2022-08-09T21:45:49.784Z,99187.03
2022-08-09T21:48:24.029Z,99187.03
2022-08-09T21:51:00.605Z,99182.66
2022-08-09T21:53:40.736Z,99190.78
2022-08-09T21:56:33.687Z,99185.34
2022-08-09T21:59:07.615Z,99185.72
2022-08-09T22:01:59.448Z,99188.63
2022-08-09T22:04:55.392Z,99183.66
2022-08-09T22:07:35.464Z,99188.63
2022-08-09T22:10:08.724Z,99186.13
2022-08-09T22:12:49.768Z,99190.50
2022-08-09T22:15:16.947Z,99188.00
2022-08-09T22:17:50.603Z,99189.44
2022-08-09T22:20:21.979Z,99188.81
2022-08-09T22:23:00.618Z,99185.88
2022-08-09T22:26:07.824Z,99185.25
2022-08-09T22:28:21.060Z,99195.81
2022-08-09T22:31:05.621Z,99195.81
2022-08-09T22:33:48.568Z,99185.22
2022-08-09T22:36:22.621Z,99198.31
2022-08-09T22:38:49.158Z,99197.44
2022-08-09T22:41:22.648Z,99202.16
2022-08-09T22:44:01.368Z,99199.22
2022-08-09T22:48:13.619Z,99196.09
2022-08-09T22:49:23.582Z,99194.44
2022-08-09T22:51:57.047Z,99199.63
2022-08-09T22:54:26.950Z,99200.03
2022-08-09T22:57:00.769Z,99198.53
2022-08-09T22:59:55.675Z,99201.22
2022-08-09T23:02:21.586Z,99198.09
2022-08-09T23:04:53.794Z,99198.91
2022-08-09T23:08:21.884Z,99194.72
2022-08-09T23:10:33.216Z,99193.22
2022-08-09T23:13:06.597Z,99191.09
2022-08-09T23:15:39.586Z,99193.59
2022-08-09T23:18:12.598Z,99194.00
2022-08-09T23:20:39.094Z,99186.75
2022-08-09T23:23:12.613Z,99194.66
2022-08-09T23:25:39.224Z,99192.34
2022-08-09T23:28:16.022Z,99189.41
2022-08-09T23:30:51.740Z,99194.34
2022-08-09T23:33:26.617Z,99203.03
2022-08-09T23:36:05.635Z,99193.50
2022-08-09T23:38:49.054Z,99193.44
2022-08-09T23:41:28.968Z,99192.53
2022-08-09T23:44:05.797Z,99194.59
2022-08-09T23:46:45.662Z,99200.41
2022-08-09T23:49:13.184Z,99190.06
2022-08-09T23:51:46.815Z,99184.00
2022-08-09T23:54:13.392Z,99195.72
2022-08-09T23:56:54.148Z,99201.09
2022-08-09T23:59:28.608Z,99205.81
